createdAt,value
2024-03-02T00:01:21.682Z,1.97
2024-03-02T00:03:49.642Z,1.80
2024-03-02T00:06:17.879Z,1.80
2024-03-02T00:08:45.723Z,1.60
2024-03-02T00:11:15.422Z,1.80
2024-03-02T00:13:43.338Z,1.53
2024-03-02T00:16:12.250Z,1.90
2024-03-02T00:18:41.546Z,1.90
2024-03-02T00:21:11.197Z,1.57
2024-03-02T00:23:39.832Z,1.50
2024-03-02T00:26:07.790Z,2.00
2024-03-02T00:28:36.616Z,1.80
2024-03-02T00:31:06.090Z,1.77
2024-03-02T00:33:34.988Z,1.50
2024-03-02T00:36:05.330Z,1.67
2024-03-02T00:38:33.226Z,1.60
2024-03-02T00:41:01.258Z,1.30
2024-03-02T00:43:47.694Z,1.73
2024-03-02T00:46:18.373Z,2.00
2024-03-02T00:48:50.946Z,1.73
2024-03-02T00:51:20.298Z,1.80
2024-03-02T00:53:48.592Z,1.60
2024-03-02T00:56:16.416Z,1.77
2024-03-02T00:58:44.569Z,1.60
2024-03-02T01:01:12.496Z,1.70
2024-03-02T01:03:40.481Z,2.10
2024-03-02T01:06:09.324Z,1.67
2024-03-02T01:08:38.516Z,1.83
2024-03-02T01:11:06.686Z,1.90
2024-03-02T01:13:34.660Z,1.37
2024-03-02T01:16:02.671Z,1.63
2024-03-02T01:18:30.589Z,1.50
2024-03-02T01:20:58.523Z,2.33
2024-03-02T01:23:26.357Z,1.50
2024-03-02T01:25:56.064Z,1.70
2024-03-02T01:28:23.901Z,1.50
2024-03-02T01:30:51.838Z,1.60
2024-03-02T01:33:19.925Z,1.60
2024-03-02T01:35:48.127Z,1.47
2024-03-02T01:38:15.991Z,1.47
2024-03-02T01:40:45.519Z,1.40
2024-03-02T01:43:14.824Z,1.70
2024-03-02T01:45:42.735Z,1.67
2024-03-02T01:48:10.595Z,1.67
2024-03-02T01:50:38.470Z,1.53
2024-03-02T01:53:06.330Z,1.60
2024-03-02T01:55:35.767Z,1.17
2024-03-02T01:58:03.731Z,1.80
2024-03-02T02:00:33.499Z,1.50
2024-03-02T02:03:01.385Z,1.73
2024-03-02T02:05:29.195Z,1.70
2024-03-02T02:07:59.328Z,1.60
2024-03-02T02:10:27.216Z,1.87
2024-03-02T02:12:55.213Z,1.77
2024-03-02T02:15:27.109Z,1.50
2024-03-02T02:17:56.626Z,1.77
2024-03-02T02:20:24.598Z,1.53
2024-03-02T02:23:00.472Z,1.67
2024-03-02T02:25:28.525Z,1.50
2024-03-02T02:27:56.624Z,1.80
2024-03-02T02:30:26.002Z,1.60
2024-03-02T02:32:53.932Z,1.63
2024-03-02T02:35:21.811Z,1.60
2024-03-02T02:37:49.741Z,1.73
2024-03-02T02:40:20.041Z,1.57
2024-03-02T02:42:48.474Z,1.70
2024-03-02T02:45:16.812Z,1.43
2024-03-02T02:47:45.038Z,1.90
2024-03-02T02:50:13.082Z,1.47
2024-03-02T02:52:42.372Z,1.50
2024-03-02T02:55:11.144Z,1.63
2024-03-02T02:57:41.571Z,1.50
2024-03-02T03:00:16.108Z,1.57
2024-03-02T03:02:44.745Z,1.50
2024-03-02T03:05:13.189Z,1.70
2024-03-02T03:07:41.770Z,1.30
2024-03-02T03:10:09.895Z,1.57
2024-03-02T03:12:38.035Z,1.30
2024-03-02T03:15:09.624Z,1.40
2024-03-02T03:17:38.375Z,1.53
2024-03-02T03:20:10.754Z,1.50
2024-03-02T03:22:38.796Z,1.70
2024-03-02T03:25:08.077Z,1.50
2024-03-02T03:27:35.948Z,1.40
2024-03-02T03:30:03.990Z,1.40
2024-03-02T03:32:33.149Z,1.60
2024-03-02T03:35:00.995Z,1.30
2024-03-02T03:37:33.822Z,1.70
2024-03-02T03:40:02.233Z,1.40
2024-03-02T03:42:30.162Z,1.40
2024-03-02T03:44:57.983Z,1.40
2024-03-02T03:47:25.820Z,1.90
2024-03-02T03:49:55.018Z,1.30
2024-03-02T03:52:23.193Z,1.50
2024-03-02T03:54:51.131Z,1.40
2024-03-02T03:57:19.031Z,1.50
2024-03-02T03:59:47.455Z,1.47
2024-03-02T04:02:15.353Z,1.20
2024-03-02T04:04:43.257Z,1.30
2024-03-02T04:07:12.489Z,1.50
2024-03-02T04:09:40.353Z,1.40
2024-03-02T04:12:08.485Z,1.80
2024-03-02T04:14:36.311Z,1.40
2024-03-02T04:17:04.188Z,1.10
2024-03-02T04:19:32.060Z,1.23
2024-03-02T04:22:03.197Z,1.50
2024-03-02T04:24:37.955Z,1.60
2024-03-02T04:27:05.790Z,1.40
2024-03-02T04:29:33.603Z,1.40
2024-03-02T04:32:01.445Z,1.57
2024-03-02T04:34:29.265Z,1.30
2024-03-02T04:36:57.115Z,1.57
2024-03-02T04:39:25.990Z,1.40
2024-03-02T04:41:55.221Z,1.60
2024-03-02T04:44:23.067Z,1.47
2024-03-02T04:46:50.983Z,1.40
2024-03-02T04:49:18.887Z,1.37
2024-03-02T04:51:46.968Z,1.17
2024-03-02T04:54:15.719Z,1.30
2024-03-02T04:56:50.711Z,1.30
2024-03-02T04:59:20.261Z,1.60
2024-03-02T05:01:48.314Z,1.23
2024-03-02T05:04:16.365Z,1.27
2024-03-02T05:06:44.424Z,1.60
2024-03-02T05:09:12.382Z,1.50
2024-03-02T05:12:10.995Z,1.27
2024-03-02T05:14:40.586Z,1.43
2024-03-02T05:17:08.434Z,1.60
2024-03-02T05:19:36.260Z,1.40
2024-03-02T05:22:04.336Z,1.47
2024-03-02T05:24:32.227Z,1.30
2024-03-02T05:27:00.695Z,1.63
2024-03-02T05:29:28.544Z,1.60
2024-03-02T05:31:57.734Z,1.50
2024-03-02T05:34:25.664Z,1.23
2024-03-02T05:36:53.615Z,1.50
2024-03-02T05:39:21.518Z,1.33
2024-03-02T05:41:49.364Z,1.33
2024-03-02T05:44:17.444Z,1.53
2024-03-02T05:46:45.442Z,1.70
2024-03-02T05:49:14.617Z,1.43
2024-03-02T05:51:42.724Z,1.20
2024-03-02T05:54:10.802Z,1.30
2024-03-02T05:56:38.629Z,1.23
2024-03-02T05:59:14.245Z,1.30
2024-03-02T06:01:42.324Z,1.23
2024-03-02T06:04:10.272Z,1.27
2024-03-02T06:06:39.803Z,1.30
2024-03-02T06:09:09.378Z,1.47
2024-03-02T06:11:37.760Z,1.10
2024-03-02T06:14:05.671Z,1.33
2024-03-02T06:16:33.510Z,1.20
2024-03-02T06:19:01.429Z,1.30
2024-03-02T06:21:29.550Z,1.33
2024-03-02T06:23:58.779Z,1.30
2024-03-02T06:26:26.604Z,1.20
2024-03-02T06:28:54.451Z,1.20
2024-03-02T06:31:25.178Z,1.30
2024-03-02T06:33:53.127Z,1.20
2024-03-02T06:36:21.036Z,1.23
2024-03-02T06:38:48.898Z,1.40
2024-03-02T06:41:18.118Z,1.50
2024-03-02T06:43:45.925Z,1.13
2024-03-02T06:46:15.833Z,1.90
2024-03-02T06:48:43.836Z,1.40
2024-03-02T06:51:12.082Z,1.20
2024-03-02T06:53:39.923Z,1.50
2024-03-02T06:56:08.789Z,1.20
2024-03-02T06:58:38.001Z,1.40
2024-03-02T07:01:06.124Z,1.40
2024-03-02T07:03:34.392Z,1.30
2024-03-02T07:06:02.404Z,1.50
2024-03-02T07:08:30.275Z,1.30
2024-03-02T07:10:58.372Z,1.40
2024-03-02T07:13:26.650Z,1.10
2024-03-02T07:16:13.407Z,1.37
2024-03-02T07:18:42.917Z,1.13
2024-03-02T07:21:10.868Z,1.30
2024-03-02T07:23:38.723Z,1.63
2024-03-02T07:28:38.123Z,1.40
2024-03-02T07:31:07.366Z,1.37
2024-03-02T07:33:35.304Z,1.50
2024-03-02T07:36:04.940Z,1.37
2024-03-02T07:38:34.470Z,1.20
2024-03-02T07:41:02.452Z,1.40
2024-03-02T07:43:30.310Z,1.40
2024-03-02T07:45:58.244Z,1.30
2024-03-02T07:48:28.243Z,1.10
2024-03-02T07:50:56.113Z,1.30
2024-03-02T07:53:23.958Z,1.23
2024-03-02T07:55:51.777Z,1.40
2024-03-02T07:58:20.649Z,1.70
2024-03-02T08:00:50.606Z,1.00
2024-03-02T08:03:19.503Z,1.20
2024-03-02T08:05:48.709Z,1.57
2024-03-02T08:08:16.605Z,1.20
2024-03-02T08:10:44.412Z,1.40
2024-03-02T08:13:12.289Z,1.20
2024-03-02T08:15:42.816Z,1.20
2024-03-02T08:18:10.723Z,1.20
2024-03-02T08:20:38.649Z,1.23
2024-03-02T08:23:07.889Z,1.00
2024-03-02T08:25:35.721Z,1.40
2024-03-02T08:28:03.671Z,1.00
2024-03-02T08:30:31.606Z,1.20
2024-03-02T08:32:59.491Z,1.10
2024-03-02T08:35:27.346Z,1.40
2024-03-02T08:37:55.197Z,1.23
2024-03-02T08:40:24.375Z,1.27
2024-03-02T08:42:52.776Z,1.30
2024-03-02T08:45:21.630Z,1.33
2024-03-02T08:47:49.525Z,1.10
2024-03-02T08:50:17.510Z,1.10
2024-03-02T08:52:45.315Z,1.10
2024-03-02T08:55:13.481Z,1.33
2024-03-02T08:57:43.330Z,1.30
2024-03-02T09:00:12.093Z,1.40
2024-03-02T09:02:39.917Z,1.30
2024-03-02T09:05:09.792Z,1.37
2024-03-02T09:07:39.051Z,1.10
2024-03-02T09:10:07.988Z,1.30
2024-03-02T09:12:35.925Z,1.20
2024-03-02T09:15:05.842Z,1.00
2024-03-02T09:17:33.820Z,1.10
2024-03-02T09:20:01.718Z,1.30
2024-03-02T09:22:29.535Z,1.20
2024-03-02T09:24:57.392Z,1.17
2024-03-02T09:27:25.251Z,1.10
2024-03-02T09:29:53.162Z,1.20
2024-03-02T09:32:22.390Z,1.10
2024-03-02T09:34:50.471Z,1.10
2024-03-02T09:37:18.308Z,1.30
2024-03-02T09:39:46.489Z,1.10
2024-03-02T09:42:14.728Z,1.20
2024-03-02T09:44:42.539Z,1.20
2024-03-02T09:47:10.374Z,1.47
2024-03-02T09:49:40.406Z,1.10
2024-03-02T09:52:09.936Z,1.30
2024-03-02T09:54:37.825Z,1.20
2024-03-02T09:57:06.240Z,1.13
2024-03-02T09:59:34.079Z,1.13
2024-03-02T10:02:02.915Z,1.30
2024-03-02T10:04:32.113Z,1.40
2024-03-02T10:07:16.534Z,1.10
2024-03-02T10:09:44.751Z,1.50
2024-03-02T10:12:13.576Z,1.20
2024-03-02T10:14:41.439Z,1.20
2024-03-02T10:17:10.645Z,1.23
2024-03-02T10:19:38.614Z,1.37
2024-03-02T10:22:07.120Z,1.00
2024-03-02T10:24:40.624Z,1.10
2024-03-02T10:27:11.926Z,1.20
2024-03-02T10:29:41.413Z,1.30
2024-03-02T10:32:12.096Z,1.27
2024-03-02T10:34:40.783Z,1.23
2024-03-02T10:37:09.368Z,1.10
2024-03-02T10:39:37.822Z,1.27
2024-03-02T10:42:07.945Z,1.10
2024-03-02T10:44:36.245Z,1.20
2024-03-02T10:47:04.799Z,1.07
2024-03-02T10:49:33.112Z,1.13
2024-03-02T10:52:02.038Z,1.30
2024-03-02T10:54:31.087Z,1.40
2024-03-02T10:57:01.274Z,1.00
2024-03-02T10:59:34.017Z,1.30
2024-03-02T11:02:05.676Z,1.10
2024-03-02T11:04:35.985Z,1.03
2024-03-02T11:07:06.176Z,1.10
2024-03-02T11:09:36.173Z,1.17
2024-03-02T11:12:06.031Z,0.93
2024-03-02T11:14:35.319Z,1.20
2024-03-02T11:17:04.575Z,1.00
2024-03-02T11:19:32.549Z,1.00
2024-03-02T11:22:00.537Z,1.17
2024-03-02T11:24:37.388Z,1.20
2024-03-02T11:27:12.500Z,1.00
2024-03-02T11:29:48.642Z,1.10
2024-03-02T11:32:16.975Z,1.00
2024-03-02T11:34:47.660Z,1.40
2024-03-02T11:37:16.019Z,1.00
2024-03-02T11:39:44.366Z,1.20
2024-03-02T11:42:12.531Z,1.10
2024-03-02T11:44:40.376Z,1.20
2024-03-02T11:47:11.692Z,1.13
2024-03-02T11:49:40.844Z,1.20
2024-03-02T11:52:09.314Z,0.90
2024-03-02T11:54:37.424Z,1.03
2024-03-02T11:57:05.698Z,1.10
2024-03-02T11:59:33.635Z,1.10
2024-03-02T12:02:01.565Z,1.00
2024-03-02T12:04:30.819Z,1.10
2024-03-02T12:07:00.967Z,1.13
2024-03-02T12:09:29.037Z,0.90
2024-03-02T12:12:06.886Z,1.10
2024-03-02T12:14:34.787Z,1.10
2024-03-02T12:17:02.629Z,1.30
2024-03-02T12:19:31.988Z,1.20
2024-03-02T12:21:59.998Z,1.20
2024-03-02T12:24:29.206Z,1.13
2024-03-02T12:26:57.265Z,1.00
2024-03-02T12:29:25.289Z,1.13
2024-03-02T12:31:53.550Z,1.27
2024-03-02T12:34:21.684Z,1.00
2024-03-02T12:36:54.123Z,1.03
2024-03-02T12:39:24.127Z,1.10
2024-03-02T12:41:52.613Z,1.13
2024-03-02T12:44:20.467Z,1.00
2024-03-02T12:46:48.496Z,1.03
2024-03-02T12:49:17.757Z,1.10
2024-03-02T12:51:48.178Z,1.10
2024-03-02T12:54:18.615Z,1.00
2024-03-02T12:56:47.448Z,1.03
2024-03-02T12:59:20.289Z,1.20
2024-03-02T13:01:53.107Z,1.00
2024-03-02T13:04:24.786Z,1.27
2024-03-02T13:06:53.114Z,1.30
2024-03-02T13:09:22.534Z,1.00
2024-03-02T13:11:50.693Z,1.00
2024-03-02T13:14:18.512Z,1.00
2024-03-02T13:16:48.508Z,1.00
2024-03-02T13:19:16.614Z,1.10
2024-03-02T13:21:44.536Z,1.10
2024-03-02T13:24:12.379Z,1.00
2024-03-02T13:26:41.683Z,1.13
2024-03-02T13:29:10.173Z,0.97
2024-03-02T13:31:38.052Z,1.00
2024-03-02T13:34:06.054Z,1.10
2024-03-02T13:36:34.089Z,1.00
2024-03-02T13:39:02.112Z,1.20
2024-03-02T13:41:29.976Z,1.10
2024-03-02T13:44:02.150Z,1.10
2024-03-02T13:46:30.062Z,1.00
2024-03-02T13:48:57.917Z,1.33
2024-03-02T13:51:26.433Z,1.20
2024-03-02T13:53:54.414Z,1.30
2024-03-02T13:56:23.477Z,0.90
2024-03-02T13:58:51.316Z,1.10
2024-03-02T14:01:20.830Z,1.00
2024-03-02T14:03:48.780Z,1.03
2024-03-02T14:06:16.636Z,1.03
2024-03-02T14:08:45.976Z,1.00
2024-03-02T14:11:16.114Z,1.00
2024-03-02T14:13:45.320Z,1.13
2024-03-02T14:16:13.221Z,1.13
2024-03-02T14:18:42.499Z,1.20
2024-03-02T14:21:10.346Z,0.97
2024-03-02T14:23:38.166Z,1.00
2024-03-02T14:26:06.107Z,1.30
2024-03-02T14:28:48.056Z,1.00
2024-03-02T14:31:19.044Z,1.00
2024-03-02T14:33:48.313Z,0.90
2024-03-02T14:36:16.174Z,1.00
2024-03-02T14:38:44.081Z,0.90
2024-03-02T14:41:12.012Z,1.10
2024-03-02T14:43:39.871Z,1.27
2024-03-02T14:46:09.415Z,0.90
2024-03-02T14:48:37.392Z,0.93
2024-03-02T14:51:06.815Z,1.00
2024-03-02T14:53:34.672Z,1.10
2024-03-02T14:56:02.521Z,1.00
2024-03-02T14:58:30.363Z,1.07
2024-03-02T15:00:58.335Z,1.07
2024-03-02T15:03:26.228Z,1.10
2024-03-02T15:05:54.887Z,1.10
2024-03-02T15:08:24.151Z,1.10
2024-03-02T15:10:52.004Z,1.10
2024-03-02T15:13:20.056Z,1.00
2024-03-02T15:15:48.253Z,0.90
2024-03-02T15:18:16.234Z,0.90
2024-03-02T15:20:44.282Z,1.10
2024-03-02T15:23:12.285Z,1.20
2024-03-02T15:25:41.714Z,0.90
2024-03-02T15:28:09.635Z,1.10
2024-03-02T15:30:37.399Z,0.90
2024-03-02T15:33:05.026Z,1.10
2024-03-02T15:35:32.633Z,1.10
2024-03-02T15:38:00.359Z,0.90
2024-03-02T15:40:28.021Z,0.90
2024-03-02T15:42:57.040Z,1.00
2024-03-02T15:45:25.351Z,1.20
2024-03-02T15:47:52.968Z,0.93
2024-03-02T15:50:20.582Z,0.90
2024-03-02T15:52:48.684Z,1.00
2024-03-02T15:55:16.824Z,0.97
2024-03-02T15:57:44.614Z,1.20
2024-03-02T16:00:15.405Z,1.13
2024-03-02T16:02:42.978Z,1.10
2024-03-02T16:05:10.762Z,0.97
2024-03-02T16:07:38.329Z,1.00
2024-03-02T16:10:08.787Z,1.10
2024-03-02T16:12:36.578Z,1.13
2024-03-02T16:15:04.451Z,1.00
2024-03-02T16:17:33.388Z,1.00
2024-03-02T16:20:00.984Z,0.93
2024-03-02T16:22:28.606Z,1.00
2024-03-02T16:24:56.282Z,0.90
2024-03-02T16:27:23.861Z,0.90
2024-03-02T16:29:51.500Z,1.00
2024-03-02T16:32:19.232Z,1.07
2024-03-02T16:34:48.285Z,1.10
2024-03-02T16:37:15.901Z,1.00
2024-03-02T16:39:44.366Z,0.90
2024-03-02T16:42:12.132Z,0.90
2024-03-02T16:44:39.684Z,1.00
2024-03-02T16:47:07.312Z,1.00
2024-03-02T16:49:35.204Z,1.00
2024-03-02T16:52:04.420Z,1.07
2024-03-02T16:54:32.132Z,1.00
2024-03-02T16:56:59.780Z,1.00
2024-03-02T16:59:27.346Z,0.90
2024-03-02T17:01:55.385Z,1.00
2024-03-02T17:04:24.960Z,1.07
2024-03-02T17:06:52.830Z,1.00
2024-03-02T17:09:21.787Z,1.00
2024-03-02T17:11:49.381Z,1.00
2024-03-02T17:14:16.987Z,1.10
2024-03-02T17:16:44.565Z,1.00
2024-03-02T17:19:12.201Z,1.10
2024-03-02T17:21:39.825Z,1.03
2024-03-02T17:24:07.615Z,1.13
2024-03-02T17:26:36.845Z,1.00
2024-03-02T17:29:04.448Z,1.00
2024-03-02T17:31:32.075Z,0.90
2024-03-02T17:33:59.694Z,1.17
2024-03-02T17:36:27.379Z,1.00
2024-03-02T17:38:55.006Z,1.20
2024-03-02T17:41:22.580Z,0.80
2024-03-02T17:43:51.713Z,1.00
2024-03-02T17:46:19.363Z,1.00
2024-03-02T17:48:47.254Z,0.93
2024-03-02T17:51:16.114Z,1.00
2024-03-02T17:53:43.695Z,1.00
2024-03-02T17:56:11.463Z,1.00
2024-03-02T17:58:39.073Z,1.10
2024-03-02T18:01:08.709Z,1.00
2024-03-02T18:03:36.351Z,1.00
2024-03-02T18:06:04.854Z,1.00
2024-03-02T18:08:33.687Z,1.00
2024-03-02T18:11:02.407Z,1.07
2024-03-02T18:13:30.370Z,0.90
2024-03-02T18:15:58.027Z,1.00
2024-03-02T18:18:27.027Z,1.00
2024-03-02T18:20:54.651Z,0.80
2024-03-02T18:23:22.279Z,0.97
2024-03-02T18:25:49.848Z,0.90
2024-03-02T18:28:17.568Z,1.17
2024-03-02T18:30:45.214Z,0.83
2024-03-02T18:33:12.831Z,1.10
2024-03-02T18:35:41.906Z,1.13
